sensor_id;sensor_type;location;lat;lon;timestamp;temperature;humidity
9849;DHT22;4963;51.444;6.528;2023-05-29T00:00:40;15.50;99.90
9849;DHT22;4963;51.444;6.528;2023-05-29T00:03:07;15.40;99.90
9849;DHT22;4963;51.444;6.528;2023-05-29T00:05:35;15.40;99.90
9849;DHT22;4963;51.444;6.528;2023-05-29T00:08:01;15.30;99.90
9849;DHT22;4963;51.444;6.528;2023-05-29T00:10:28;15.20;99.90
9849;DHT22;4963;51.444;6.528;2023-05-29T00:12:58;15.20;99.90
9849;DHT22;4963;51.444;6.528;2023-05-29T00:15:26;15.00;99.90
9849;DHT22;4963;51.444;6.528;2023-05-29T00:17:53;15.00;99.90
9849;DHT22;4963;51.444;6.528;2023-05-29T00:20:20;15.10;99.90
9849;DHT22;4963;51.444;6.528;2023-05-29T00:22:47;15.10;99.90
9849;DHT22;4963;51.444;6.528;2023-05-29T00:25:15;15.00;99.90
9849;DHT22;4963;51.444;6.528;2023-05-29T00:27:41;14.90;99.90
9849;DHT22;4963;51.444;6.528;2023-05-29T00:30:10;14.90;99.90
9849;DHT22;4963;51.444;6.528;2023-05-29T00:32:37;14.80;99.90
9849;DHT22;4963;51.444;6.528;2023-05-29T00:35:05;14.80;99.90
9849;DHT22;4963;51.444;6.528;2023-05-29T00:37:32;14.60;99.90
9849;DHT22;4963;51.444;6.528;2023-05-29T00:39:59;14.60;99.90
9849;DHT22;4963;51.444;6.528;2023-05-29T00:42:25;14.60;99.90
9849;DHT22;4963;51.444;6.528;2023-05-29T00:44:52;14.50;99.90
9849;DHT22;4963;51.444;6.528;2023-05-29T00:47:20;14.40;99.90
9849;DHT22;4963;51.444;6.528;2023-05-29T00:49:47;14.30;99.90
9849;DHT22;4963;51.444;6.528;2023-05-29T00:52:17;14.20;99.90
9849;DHT22;4963;51.444;6.528;2023-05-29T00:54:45;14.10;99.90
9849;DHT22;4963;51.444;6.528;2023-05-29T00:57:13;14.00;99.90
9849;DHT22;4963;51.444;6.528;2023-05-29T00:59:41;14.00;99.90
9849;DHT22;4963;51.444;6.528;2023-05-29T01:02:08;14.00;99.90
9849;DHT22;4963;51.444;6.528;2023-05-29T01:04:37;14.00;99.90
9849;DHT22;4963;51.444;6.528;2023-05-29T01:07:04;13.90;99.90
9849;DHT22;4963;51.444;6.528;2023-05-29T01:09:32;13.90;99.90
9849;DHT22;4963;51.444;6.528;2023-05-29T01:12:08;13.70;99.90
9849;DHT22;4963;51.444;6.528;2023-05-29T01:14:58;13.70;99.90
9849;DHT22;4963;51.444;6.528;2023-05-29T01:17:36;13.70;99.90
9849;DHT22;4963;51.444;6.528;2023-05-29T01:20:15;13.70;99.90
9849;DHT22;4963;51.444;6.528;2023-05-29T01:26:01;13.60;99.90
9849;DHT22;4963;51.444;6.528;2023-05-29T01:28:44;13.50;99.90
9849;DHT22;4963;51.444;6.528;2023-05-29T01:31:13;13.60;99.90
9849;DHT22;4963;51.444;6.528;2023-05-29T01:33:40;13.60;99.90
9849;DHT22;4963;51.444;6.528;2023-05-29T01:36:08;13.40;99.90
9849;DHT22;4963;51.444;6.528;2023-05-29T01:38:36;13.20;99.90
9849;DHT22;4963;51.444;6.528;2023-05-29T01:41:03;13.20;99.90
9849;DHT22;4963;51.444;6.528;2023-05-29T01:43:31;13.00;99.90
9849;DHT22;4963;51.444;6.528;2023-05-29T01:45:59;13.00;99.90
9849;DHT22;4963;51.444;6.528;2023-05-29T01:48:27;13.10;99.90
9849;DHT22;4963;51.444;6.528;2023-05-29T01:50:54;13.10;99.90
9849;DHT22;4963;51.444;6.528;2023-05-29T01:53:21;13.10;99.90
9849;DHT22;4963;51.444;6.528;2023-05-29T01:55:49;13.00;99.90
9849;DHT22;4963;51.444;6.528;2023-05-29T01:58:17;12.90;99.90
9849;DHT22;4963;51.444;6.528;2023-05-29T02:00:46;12.90;99.90
9849;DHT22;4963;51.444;6.528;2023-05-29T02:03:15;12.80;99.90
9849;DHT22;4963;51.444;6.528;2023-05-29T02:05:42;12.80;99.90
9849;DHT22;4963;51.444;6.528;2023-05-29T02:08:09;12.80;99.90
9849;DHT22;4963;51.444;6.528;2023-05-29T02:10:35;12.70;99.90
9849;DHT22;4963;51.444;6.528;2023-05-29T02:13:02;12.70;99.90
9849;DHT22;4963;51.444;6.528;2023-05-29T02:15:29;12.60;99.90
9849;DHT22;4963;51.444;6.528;2023-05-29T02:17:56;12.50;99.90
9849;DHT22;4963;51.444;6.528;2023-05-29T02:20:24;12.50;99.90
9849;DHT22;4963;51.444;6.528;2023-05-29T02:22:51;12.50;99.90
9849;DHT22;4963;51.444;6.528;2023-05-29T02:25:17;12.40;99.90
9849;DHT22;4963;51.444;6.528;2023-05-29T02:27:44;12.40;99.90
9849;DHT22;4963;51.444;6.528;2023-05-29T02:30:12;12.30;99.90
9849;DHT22;4963;51.444;6.528;2023-05-29T02:32:39;12.20;99.90
9849;DHT22;4963;51.444;6.528;2023-05-29T02:35:06;12.30;99.90
9849;DHT22;4963;51.444;6.528;2023-05-29T02:37:35;12.30;99.90
9849;DHT22;4963;51.444;6.528;2023-05-29T02:40:01;12.30;99.90
9849;DHT22;4963;51.444;6.528;2023-05-29T02:42:28;12.30;99.90
9849;DHT22;4963;51.444;6.528;2023-05-29T02:44:55;12.40;99.90
9849;DHT22;4963;51.444;6.528;2023-05-29T02:47:22;12.40;99.90
9849;DHT22;4963;51.444;6.528;2023-05-29T02:49:48;12.40;99.90
9849;DHT22;4963;51.444;6.528;2023-05-29T02:52:15;12.40;99.90
9849;DHT22;4963;51.444;6.528;2023-05-29T02:54:43;12.30;99.90
9849;DHT22;4963;51.444;6.528;2023-05-29T02:57:10;12.40;99.90
9849;DHT22;4963;51.444;6.528;2023-05-29T02:59:37;12.30;99.90
9849;DHT22;4963;51.444;6.528;2023-05-29T03:02:04;12.20;99.90
9849;DHT22;4963;51.444;6.528;2023-05-29T03:04:31;12.20;99.90
9849;DHT22;4963;51.444;6.528;2023-05-29T03:06:58;12.20;99.90
9849;DHT22;4963;51.444;6.528;2023-05-29T03:09:25;12.20;99.90
9849;DHT22;4963;51.444;6.528;2023-05-29T03:11:53;12.20;99.90
9849;DHT22;4963;51.444;6.528;2023-05-29T03:14:20;12.20;99.90
9849;DHT22;4963;51.444;6.528;2023-05-29T03:16:48;12.20;99.90
9849;DHT22;4963;51.444;6.528;2023-05-29T03:19:16;12.20;99.90
9849;DHT22;4963;51.444;6.528;2023-05-29T03:21:42;12.10;99.90
9849;DHT22;4963;51.444;6.528;2023-05-29T03:24:10;12.00;99.90
9849;DHT22;4963;51.444;6.528;2023-05-29T03:26:38;12.00;99.90
9849;DHT22;4963;51.444;6.528;2023-05-29T03:29:07;12.00;99.90
9849;DHT22;4963;51.444;6.528;2023-05-29T03:31:34;12.00;99.90
9849;DHT22;4963;51.444;6.528;2023-05-29T03:34:01;11.90;99.90
9849;DHT22;4963;51.444;6.528;2023-05-29T03:36:28;11.90;99.90
9849;DHT22;4963;51.444;6.528;2023-05-29T03:38:54;11.90;99.90
9849;DHT22;4963;51.444;6.528;2023-05-29T03:41:21;12.00;99.90
9849;DHT22;4963;51.444;6.528;2023-05-29T03:43:48;12.00;99.90
9849;DHT22;4963;51.444;6.528;2023-05-29T03:46:16;12.00;99.90
9849;DHT22;4963;51.444;6.528;2023-05-29T03:48:43;12.00;99.90
9849;DHT22;4963;51.444;6.528;2023-05-29T03:51:10;11.90;99.90
9849;DHT22;4963;51.444;6.528;2023-05-29T03:53:37;11.70;99.90
9849;DHT22;4963;51.444;6.528;2023-05-29T03:56:04;11.60;99.90
9849;DHT22;4963;51.444;6.528;2023-05-29T03:58:31;11.50;99.90
9849;DHT22;4963;51.444;6.528;2023-05-29T04:00:57;11.40;99.90
9849;DHT22;4963;51.444;6.528;2023-05-29T04:03:26;11.40;99.90
9849;DHT22;4963;51.444;6.528;2023-05-29T04:05:54;11.40;99.90
9849;DHT22;4963;51.444;6.528;2023-05-29T04:08:22;11.30;99.90
9849;DHT22;4963;51.444;6.528;2023-05-29T04:10:48;11.40;99.90
9849;DHT22;4963;51.444;6.528;2023-05-29T04:13:19;11.40;99.90
9849;DHT22;4963;51.444;6.528;2023-05-29T04:15:45;11.50;99.90
9849;DHT22;4963;51.444;6.528;2023-05-29T04:18:12;11.30;99.90
9849;DHT22;4963;51.444;6.528;2023-05-29T04:20:41;11.30;99.90
9849;DHT22;4963;51.444;6.528;2023-05-29T04:23:08;11.30;99.90
9849;DHT22;4963;51.444;6.528;2023-05-29T04:25:35;11.40;99.90
9849;DHT22;4963;51.444;6.528;2023-05-29T04:28:02;11.40;99.90
9849;DHT22;4963;51.444;6.528;2023-05-29T04:30:29;11.50;99.90
9849;DHT22;4963;51.444;6.528;2023-05-29T04:32:58;11.50;99.90
9849;DHT22;4963;51.444;6.528;2023-05-29T04:35:24;11.50;99.90
9849;DHT22;4963;51.444;6.528;2023-05-29T04:37:55;11.50;99.90
9849;DHT22;4963;51.444;6.528;2023-05-29T04:40:22;11.40;99.90
9849;DHT22;4963;51.444;6.528;2023-05-29T04:42:49;11.40;99.90
9849;DHT22;4963;51.444;6.528;2023-05-29T04:45:15;11.40;99.90
9849;DHT22;4963;51.444;6.528;2023-05-29T04:47:45;11.40;99.90
9849;DHT22;4963;51.444;6.528;2023-05-29T04:50:12;11.40;99.90
9849;DHT22;4963;51.444;6.528;2023-05-29T04:52:39;11.50;99.90
9849;DHT22;4963;51.444;6.528;2023-05-29T04:55:09;11.50;99.90
9849;DHT22;4963;51.444;6.528;2023-05-29T04:57:36;11.60;99.90
9849;DHT22;4963;51.444;6.528;2023-05-29T05:00:04;11.50;99.90
9849;DHT22;4963;51.444;6.528;2023-05-29T05:02:34;11.50;99.90
9849;DHT22;4963;51.444;6.528;2023-05-29T05:05:02;11.50;99.90
9849;DHT22;4963;51.444;6.528;2023-05-29T05:07:29;11.60;99.90
9849;DHT22;4963;51.444;6.528;2023-05-29T05:09:56;11.70;99.90
9849;DHT22;4963;51.444;6.528;2023-05-29T05:12:24;11.80;99.90
9849;DHT22;4963;51.444;6.528;2023-05-29T05:14:50;11.80;99.90
9849;DHT22;4963;51.444;6.528;2023-05-29T05:17:17;11.80;99.90
9849;DHT22;4963;51.444;6.528;2023-05-29T05:19:44;11.90;99.90
9849;DHT22;4963;51.444;6.528;2023-05-29T05:22:11;12.00;99.90
9849;DHT22;4963;51.444;6.528;2023-05-29T05:24:38;12.20;99.90
9849;DHT22;4963;51.444;6.528;2023-05-29T05:27:05;12.20;99.90
9849;DHT22;4963;51.444;6.528;2023-05-29T05:29:33;12.30;99.90
9849;DHT22;4963;51.444;6.528;2023-05-29T05:32:00;12.30;99.90
9849;DHT22;4963;51.444;6.528;2023-05-29T05:34:26;12.40;99.90
9849;DHT22;4963;51.444;6.528;2023-05-29T05:36:53;12.60;99.90
9849;DHT22;4963;51.444;6.528;2023-05-29T05:39:20;12.80;99.90
9849;DHT22;4963;51.444;6.528;2023-05-29T05:41:47;12.90;99.90
9849;DHT22;4963;51.444;6.528;2023-05-29T05:44:13;13.20;99.90
9849;DHT22;4963;51.444;6.528;2023-05-29T05:46:41;13.40;99.90
9849;DHT22;4963;51.444;6.528;2023-05-29T05:49:08;13.50;99.90
9849;DHT22;4963;51.444;6.528;2023-05-29T05:51:35;13.50;99.90
9849;DHT22;4963;51.444;6.528;2023-05-29T05:54:02;13.60;99.90
9849;DHT22;4963;51.444;6.528;2023-05-29T05:56:28;13.70;99.90
9849;DHT22;4963;51.444;6.528;2023-05-29T05:58:55;13.90;99.90
9849;DHT22;4963;51.444;6.528;2023-05-29T06:01:22;14.20;99.90
9849;DHT22;4963;51.444;6.528;2023-05-29T06:03:50;14.30;99.90
9849;DHT22;4963;51.444;6.528;2023-05-29T06:06:17;14.40;99.90
9849;DHT22;4963;51.444;6.528;2023-05-29T06:08:44;14.40;99.90
9849;DHT22;4963;51.444;6.528;2023-05-29T06:11:11;14.20;99.90
9849;DHT22;4963;51.444;6.528;2023-05-29T06:13:38;14.20;99.90
9849;DHT22;4963;51.444;6.528;2023-05-29T06:16:05;14.30;99.90
9849;DHT22;4963;51.444;6.528;2023-05-29T06:18:32;14.40;99.90
9849;DHT22;4963;51.444;6.528;2023-05-29T06:21:00;14.60;99.90
9849;DHT22;4963;51.444;6.528;2023-05-29T06:23:26;14.70;99.90
9849;DHT22;4963;51.444;6.528;2023-05-29T06:25:53;14.60;99.90
9849;DHT22;4963;51.444;6.528;2023-05-29T06:28:20;14.70;99.90
9849;DHT22;4963;51.444;6.528;2023-05-29T06:30:47;14.80;99.90
9849;DHT22;4963;51.444;6.528;2023-05-29T06:33:14;15.00;99.90
9849;DHT22;4963;51.444;6.528;2023-05-29T06:35:41;15.10;99.90
9849;DHT22;4963;51.444;6.528;2023-05-29T06:38:09;15.20;99.90
9849;DHT22;4963;51.444;6.528;2023-05-29T06:40:35;15.30;99.90
9849;DHT22;4963;51.444;6.528;2023-05-29T06:43:02;15.30;99.90
9849;DHT22;4963;51.444;6.528;2023-05-29T06:45:29;15.60;99.90
9849;DHT22;4963;51.444;6.528;2023-05-29T06:47:56;16.00;99.90
9849;DHT22;4963;51.444;6.528;2023-05-29T06:50:22;16.30;99.90
9849;DHT22;4963;51.444;6.528;2023-05-29T06:52:49;16.60;99.90
9849;DHT22;4963;51.444;6.528;2023-05-29T06:55:18;16.70;99.90
9849;DHT22;4963;51.444;6.528;2023-05-29T06:57:45;16.60;99.90
9849;DHT22;4963;51.444;6.528;2023-05-29T07:00:13;16.50;99.90
9849;DHT22;4963;51.444;6.528;2023-05-29T07:02:40;16.30;99.90
9849;DHT22;4963;51.444;6.528;2023-05-29T07:05:07;16.20;99.90
9849;DHT22;4963;51.444;6.528;2023-05-29T07:07:34;16.20;99.90
9849;DHT22;4963;51.444;6.528;2023-05-29T07:10:01;16.20;99.90
9849;DHT22;4963;51.444;6.528;2023-05-29T07:12:29;16.20;99.90
9849;DHT22;4963;51.444;6.528;2023-05-29T07:14:56;16.10;99.90
9849;DHT22;4963;51.444;6.528;2023-05-29T07:17:23;16.00;99.90
9849;DHT22;4963;51.444;6.528;2023-05-29T07:19:50;15.90;99.90
9849;DHT22;4963;51.444;6.528;2023-05-29T07:22:16;16.00;99.90
9849;DHT22;4963;51.444;6.528;2023-05-29T07:24:43;16.10;99.90
9849;DHT22;4963;51.444;6.528;2023-05-29T07:27:10;16.30;99.90
9849;DHT22;4963;51.444;6.528;2023-05-29T07:29:38;16.60;99.90
9849;DHT22;4963;51.444;6.528;2023-05-29T07:32:05;16.70;99.90
9849;DHT22;4963;51.444;6.528;2023-05-29T07:34:32;16.70;99.90
9849;DHT22;4963;51.444;6.528;2023-05-29T07:37:01;16.80;99.90
9849;DHT22;4963;51.444;6.528;2023-05-29T07:39:29;16.80;99.90
9849;DHT22;4963;51.444;6.528;2023-05-29T07:41:56;16.70;99.90
9849;DHT22;4963;51.444;6.528;2023-05-29T07:44:23;16.70;99.90
9849;DHT22;4963;51.444;6.528;2023-05-29T07:46:51;16.80;99.90
9849;DHT22;4963;51.444;6.528;2023-05-29T07:49:19;16.70;99.90
9849;DHT22;4963;51.444;6.528;2023-05-29T07:51:45;16.50;99.90
9849;DHT22;4963;51.444;6.528;2023-05-29T07:54:12;16.50;99.90
9849;DHT22;4963;51.444;6.528;2023-05-29T07:56:42;16.80;99.90
9849;DHT22;4963;51.444;6.528;2023-05-29T07:59:10;17.00;99.90
9849;DHT22;4963;51.444;6.528;2023-05-29T08:01:37;17.30;99.90
9849;DHT22;4963;51.444;6.528;2023-05-29T08:04:06;17.50;99.90
9849;DHT22;4963;51.444;6.528;2023-05-29T08:06:32;17.40;99.90
9849;DHT22;4963;51.444;6.528;2023-05-29T08:08:59;17.40;99.90
9849;DHT22;4963;51.444;6.528;2023-05-29T08:11:27;17.00;99.90
9849;DHT22;4963;51.444;6.528;2023-05-29T08:13:53;17.00;99.90
9849;DHT22;4963;51.444;6.528;2023-05-29T08:16:20;16.80;99.90
9849;DHT22;4963;51.444;6.528;2023-05-29T08:18:47;16.80;99.90
9849;DHT22;4963;51.444;6.528;2023-05-29T08:21:15;16.70;99.90
9849;DHT22;4963;51.444;6.528;2023-05-29T08:23:42;16.90;99.90
9849;DHT22;4963;51.444;6.528;2023-05-29T08:26:09;17.10;99.90
9849;DHT22;4963;51.444;6.528;2023-05-29T08:28:36;17.20;99.90
9849;DHT22;4963;51.444;6.528;2023-05-29T08:31:02;17.00;99.90
9849;DHT22;4963;51.444;6.528;2023-05-29T08:33:29;17.30;99.90
9849;DHT22;4963;51.444;6.528;2023-05-29T08:35:57;17.40;99.90
9849;DHT22;4963;51.444;6.528;2023-05-29T08:38:26;17.60;99.90
9849;DHT22;4963;51.444;6.528;2023-05-29T08:40:54;17.60;99.80
9849;DHT22;4963;51.444;6.528;2023-05-29T08:43:22;17.60;99.80
9849;DHT22;4963;51.444;6.528;2023-05-29T08:45:54;17.70;99.90
9849;DHT22;4963;51.444;6.528;2023-05-29T08:48:23;17.80;99.90
9849;DHT22;4963;51.444;6.528;2023-05-29T08:50:53;17.90;99.80
9849;DHT22;4963;51.444;6.528;2023-05-29T08:53:21;18.00;99.90
9849;DHT22;4963;51.444;6.528;2023-05-29T08:55:50;17.80;99.90
9849;DHT22;4963;51.444;6.528;2023-05-29T08:58:18;17.90;99.90
9849;DHT22;4963;51.444;6.528;2023-05-29T09:00:46;17.90;99.90
9849;DHT22;4963;51.444;6.528;2023-05-29T09:03:13;17.70;99.90
9849;DHT22;4963;51.444;6.528;2023-05-29T09:05:41;17.40;99.90
9849;DHT22;4963;51.444;6.528;2023-05-29T09:08:09;17.20;99.90
9849;DHT22;4963;51.444;6.528;2023-05-29T09:10:37;17.20;99.90
9849;DHT22;4963;51.444;6.528;2023-05-29T09:13:06;17.40;99.90
9849;DHT22;4963;51.444;6.528;2023-05-29T09:15:34;17.50;99.90
9849;DHT22;4963;51.444;6.528;2023-05-29T09:18:02;17.70;99.90
9849;DHT22;4963;51.444;6.528;2023-05-29T09:20:30;17.80;99.90
9849;DHT22;4963;51.444;6.528;2023-05-29T09:22:59;17.70;99.90
9849;DHT22;4963;51.444;6.528;2023-05-29T09:25:28;17.90;99.90
9849;DHT22;4963;51.444;6.528;2023-05-29T09:27:58;18.10;99.90
9849;DHT22;4963;51.444;6.528;2023-05-29T09:30:36;18.00;99.90
9849;DHT22;4963;51.444;6.528;2023-05-29T09:33:04;18.00;99.90
9849;DHT22;4963;51.444;6.528;2023-05-29T09:35:36;18.00;99.90
9849;DHT22;4963;51.444;6.528;2023-05-29T09:38:03;17.90;99.90
9849;DHT22;4963;51.444;6.528;2023-05-29T09:40:30;17.80;99.90
9849;DHT22;4963;51.444;6.528;2023-05-29T09:43:02;17.90;99.90
9849;DHT22;4963;51.444;6.528;2023-05-29T09:45:32;18.00;99.90
9849;DHT22;4963;51.444;6.528;2023-05-29T09:47:59;18.30;99.90
9849;DHT22;4963;51.444;6.528;2023-05-29T09:50:26;18.40;99.90
9849;DHT22;4963;51.444;6.528;2023-05-29T09:52:56;18.40;99.90
9849;DHT22;4963;51.444;6.528;2023-05-29T09:55:25;18.20;99.90
9849;DHT22;4963;51.444;6.528;2023-05-29T09:57:53;18.20;99.90
9849;DHT22;4963;51.444;6.528;2023-05-29T10:00:21;18.30;99.90
9849;DHT22;4963;51.444;6.528;2023-05-29T10:02:50;18.10;99.90
9849;DHT22;4963;51.444;6.528;2023-05-29T10:05:18;18.30;99.90
9849;DHT22;4963;51.444;6.528;2023-05-29T10:07:47;18.40;99.90
9849;DHT22;4963;51.444;6.528;2023-05-29T10:10:18;18.20;99.90
9849;DHT22;4963;51.444;6.528;2023-05-29T10:12:48;18.30;99.90
9849;DHT22;4963;51.444;6.528;2023-05-29T10:15:16;18.60;99.90
9849;DHT22;4963;51.444;6.528;2023-05-29T10:17:52;18.40;99.90
9849;DHT22;4963;51.444;6.528;2023-05-29T10:20:22;18.50;99.90
9849;DHT22;4963;51.444;6.528;2023-05-29T10:22:51;18.70;99.90
9849;DHT22;4963;51.444;6.528;2023-05-29T10:25:19;18.80;99.90
9849;DHT22;4963;51.444;6.528;2023-05-29T10:27:47;18.60;99.90
9849;DHT22;4963;51.444;6.528;2023-05-29T10:30:22;18.70;99.90
9849;DHT22;4963;51.444;6.528;2023-05-29T10:33:04;18.60;99.90
9849;DHT22;4963;51.444;6.528;2023-05-29T10:35:42;18.60;99.90
9849;DHT22;4963;51.444;6.528;2023-05-29T10:38:12;18.80;99.90
9849;DHT22;4963;51.444;6.528;2023-05-29T10:40:42;19.10;99.90
9849;DHT22;4963;51.444;6.528;2023-05-29T10:43:09;19.10;99.90
9849;DHT22;4963;51.444;6.528;2023-05-29T10:45:55;19.20;99.90
9849;DHT22;4963;51.444;6.528;2023-05-29T10:48:41;19.10;99.90
9849;DHT22;4963;51.444;6.528;2023-05-29T10:51:08;19.20;99.90
9849;DHT22;4963;51.444;6.528;2023-05-29T10:53:50;19.10;99.90
9849;DHT22;4963;51.444;6.528;2023-05-29T10:56:21;19.00;99.90
9849;DHT22;4963;51.444;6.528;2023-05-29T10:58:53;19.10;99.90
9849;DHT22;4963;51.444;6.528;2023-05-29T11:01:21;19.00;99.90
9849;DHT22;4963;51.444;6.528;2023-05-29T11:03:50;18.90;99.90
9849;DHT22;4963;51.444;6.528;2023-05-29T11:06:19;19.00;99.90
9849;DHT22;4963;51.444;6.528;2023-05-29T11:08:47;19.20;99.90
9849;DHT22;4963;51.444;6.528;2023-05-29T11:11:29;19.30;99.90
9849;DHT22;4963;51.444;6.528;2023-05-29T11:13:57;19.30;99.90
9849;DHT22;4963;51.444;6.528;2023-05-29T11:16:36;19.30;99.90
9849;DHT22;4963;51.444;6.528;2023-05-29T11:19:06;19.30;99.90
9849;DHT22;4963;51.444;6.528;2023-05-29T11:21:48;19.20;99.90
9849;DHT22;4963;51.444;6.528;2023-05-29T11:24:22;19.30;99.90
9849;DHT22;4963;51.444;6.528;2023-05-29T11:26:51;19.20;99.90
9849;DHT22;4963;51.444;6.528;2023-05-29T11:29:21;19.20;99.90
9849;DHT22;4963;51.444;6.528;2023-05-29T11:31:49;19.20;99.90
9849;DHT22;4963;51.444;6.528;2023-05-29T11:34:22;19.20;99.90
9849;DHT22;4963;51.444;6.528;2023-05-29T11:36:51;19.10;99.90
9849;DHT22;4963;51.444;6.528;2023-05-29T11:39:18;19.00;99.90
9849;DHT22;4963;51.444;6.528;2023-05-29T11:41:45;19.00;99.90
9849;DHT22;4963;51.444;6.528;2023-05-29T11:44:16;19.10;99.90
9849;DHT22;4963;51.444;6.528;2023-05-29T11:46:42;19.10;99.90
9849;DHT22;4963;51.444;6.528;2023-05-29T11:49:09;19.20;99.90
9849;DHT22;4963;51.444;6.528;2023-05-29T11:51:41;19.50;99.90
9849;DHT22;4963;51.444;6.528;2023-05-29T11:54:08;19.50;99.90
9849;DHT22;4963;51.444;6.528;2023-05-29T11:56:35;19.30;99.90
9849;DHT22;4963;51.444;6.528;2023-05-29T11:59:10;19.30;99.90
9849;DHT22;4963;51.444;6.528;2023-05-29T12:01:37;19.30;99.90
9849;DHT22;4963;51.444;6.528;2023-05-29T12:04:13;19.40;99.90
9849;DHT22;4963;51.444;6.528;2023-05-29T12:06:42;19.50;99.90
9849;DHT22;4963;51.444;6.528;2023-05-29T12:09:22;19.50;99.90
9849;DHT22;4963;51.444;6.528;2023-05-29T12:11:50;19.60;99.90
9849;DHT22;4963;51.444;6.528;2023-05-29T12:14:16;19.60;99.90
9849;DHT22;4963;51.444;6.528;2023-05-29T12:16:43;19.80;99.90
9849;DHT22;4963;51.444;6.528;2023-05-29T12:19:10;19.70;99.90
9849;DHT22;4963;51.444;6.528;2023-05-29T12:21:42;19.60;99.70
9849;DHT22;4963;51.444;6.528;2023-05-29T12:24:09;19.40;99.90
9849;DHT22;4963;51.444;6.528;2023-05-29T12:26:36;19.20;99.80
9849;DHT22;4963;51.444;6.528;2023-05-29T12:29:03;19.20;99.90
9849;DHT22;4963;51.444;6.528;2023-05-29T12:31:31;19.30;99.90
9849;DHT22;4963;51.444;6.528;2023-05-29T12:34:00;19.50;99.90
9849;DHT22;4963;51.444;6.528;2023-05-29T12:36:28;19.50;99.90
9849;DHT22;4963;51.444;6.528;2023-05-29T12:38:57;19.60;99.90
9849;DHT22;4963;51.444;6.528;2023-05-29T12:41:25;19.50;99.90
9849;DHT22;4963;51.444;6.528;2023-05-29T12:43:53;19.50;99.90
9849;DHT22;4963;51.444;6.528;2023-05-29T12:46:21;19.40;99.70
9849;DHT22;4963;51.444;6.528;2023-05-29T12:48:47;19.40;99.90
9849;DHT22;4963;51.444;6.528;2023-05-29T12:51:15;19.50;99.90
9849;DHT22;4963;51.444;6.528;2023-05-29T12:53:44;19.50;99.70
9849;DHT22;4963;51.444;6.528;2023-05-29T12:56:12;19.50;99.80
9849;DHT22;4963;51.444;6.528;2023-05-29T12:58:39;19.70;99.90
9849;DHT22;4963;51.444;6.528;2023-05-29T13:01:12;19.60;99.90
9849;DHT22;4963;51.444;6.528;2023-05-29T13:03:39;19.50;99.90
9849;DHT22;4963;51.444;6.528;2023-05-29T13:06:06;19.60;99.90
9849;DHT22;4963;51.444;6.528;2023-05-29T13:08:33;19.50;99.60
9849;DHT22;4963;51.444;6.528;2023-05-29T13:11:00;19.50;99.60
9849;DHT22;4963;51.444;6.528;2023-05-29T13:13:28;19.50;99.70
9849;DHT22;4963;51.444;6.528;2023-05-29T13:15:55;19.50;99.90
9849;DHT22;4963;51.444;6.528;2023-05-29T13:18:22;19.40;99.90
9849;DHT22;4963;51.444;6.528;2023-05-29T13:20:49;19.50;99.90
9849;DHT22;4963;51.444;6.528;2023-05-29T13:23:15;19.60;99.90
9849;DHT22;4963;51.444;6.528;2023-05-29T13:25:42;19.60;99.90
9849;DHT22;4963;51.444;6.528;2023-05-29T13:28:09;19.60;99.70
9849;DHT22;4963;51.444;6.528;2023-05-29T13:30:37;19.50;99.70
9849;DHT22;4963;51.444;6.528;2023-05-29T13:33:04;19.50;99.40
9849;DHT22;4963;51.444;6.528;2023-05-29T13:35:31;19.40;99.70
9849;DHT22;4963;51.444;6.528;2023-05-29T13:37:57;19.50;99.90
9849;DHT22;4963;51.444;6.528;2023-05-29T13:40:24;19.30;99.40
9849;DHT22;4963;51.444;6.528;2023-05-29T13:42:51;19.40;99.80
9849;DHT22;4963;51.444;6.528;2023-05-29T13:45:18;19.50;99.90
9849;DHT22;4963;51.444;6.528;2023-05-29T13:47:46;19.60;99.70
9849;DHT22;4963;51.444;6.528;2023-05-29T13:50:13;19.60;99.80
9849;DHT22;4963;51.444;6.528;2023-05-29T13:52:39;19.60;99.90
9849;DHT22;4963;51.444;6.528;2023-05-29T13:55:07;19.70;99.90
9849;DHT22;4963;51.444;6.528;2023-05-29T13:57:34;19.50;99.50
9849;DHT22;4963;51.444;6.528;2023-05-29T14:00:02;19.50;99.70
9849;DHT22;4963;51.444;6.528;2023-05-29T14:02:28;19.30;99.60
9849;DHT22;4963;51.444;6.528;2023-05-29T14:04:57;19.30;99.60
9849;DHT22;4963;51.444;6.528;2023-05-29T14:07:24;19.30;99.20
9849;DHT22;4963;51.444;6.528;2023-05-29T14:09:51;19.20;99.90
9849;DHT22;4963;51.444;6.528;2023-05-29T14:12:17;19.20;99.50
9849;DHT22;4963;51.444;6.528;2023-05-29T14:14:44;19.30;98.90
9849;DHT22;4963;51.444;6.528;2023-05-29T14:17:11;19.40;99.40
9849;DHT22;4963;51.444;6.528;2023-05-29T14:19:38;19.40;99.20
9849;DHT22;4963;51.444;6.528;2023-05-29T14:22:06;19.50;99.50
9849;DHT22;4963;51.444;6.528;2023-05-29T14:24:33;19.40;99.10
9849;DHT22;4963;51.444;6.528;2023-05-29T14:27:01;19.40;99.60
9849;DHT22;4963;51.444;6.528;2023-05-29T14:29:28;19.50;99.10
9849;DHT22;4963;51.444;6.528;2023-05-29T14:31:55;19.50;99.00
9849;DHT22;4963;51.444;6.528;2023-05-29T14:34:22;19.60;99.10
9849;DHT22;4963;51.444;6.528;2023-05-29T14:36:49;19.70;99.40
9849;DHT22;4963;51.444;6.528;2023-05-29T14:39:17;19.60;98.90
9849;DHT22;4963;51.444;6.528;2023-05-29T14:41:44;19.40;98.70
9849;DHT22;4963;51.444;6.528;2023-05-29T14:44:11;19.30;98.70
9849;DHT22;4963;51.444;6.528;2023-05-29T14:46:38;19.30;99.20
9849;DHT22;4963;51.444;6.528;2023-05-29T14:49:04;19.40;99.00
9849;DHT22;4963;51.444;6.528;2023-05-29T14:51:32;19.50;98.60
9849;DHT22;4963;51.444;6.528;2023-05-29T14:53:59;19.60;98.40
9849;DHT22;4963;51.444;6.528;2023-05-29T14:56:27;19.50;98.30
9849;DHT22;4963;51.444;6.528;2023-05-29T14:58:54;19.60;98.90
9849;DHT22;4963;51.444;6.528;2023-05-29T15:01:21;19.60;97.90
9849;DHT22;4963;51.444;6.528;2023-05-29T15:03:47;19.50;97.60
9849;DHT22;4963;51.444;6.528;2023-05-29T15:06:14;19.30;98.20
9849;DHT22;4963;51.444;6.528;2023-05-29T15:08:41;19.20;97.60
9849;DHT22;4963;51.444;6.528;2023-05-29T15:11:09;19.30;98.20
9849;DHT22;4963;51.444;6.528;2023-05-29T15:13:39;19.20;97.50
9849;DHT22;4963;51.444;6.528;2023-05-29T15:16:06;19.20;97.40
9849;DHT22;4963;51.444;6.528;2023-05-29T15:18:33;19.20;96.90
9849;DHT22;4963;51.444;6.528;2023-05-29T15:20:59;19.30;96.60
9849;DHT22;4963;51.444;6.528;2023-05-29T15:23:26;19.50;96.60
9849;DHT22;4963;51.444;6.528;2023-05-29T15:25:53;19.40;95.10
9849;DHT22;4963;51.444;6.528;2023-05-29T15:28:20;19.50;95.10
9849;DHT22;4963;51.444;6.528;2023-05-29T15:30:48;19.60;95.00
9849;DHT22;4963;51.444;6.528;2023-05-29T15:33:15;19.70;95.40
9849;DHT22;4963;51.444;6.528;2023-05-29T15:35:42;19.80;95.10
9849;DHT22;4963;51.444;6.528;2023-05-29T15:38:09;19.70;95.20
9849;DHT22;4963;51.444;6.528;2023-05-29T15:40:38;19.80;94.80
9849;DHT22;4963;51.444;6.528;2023-05-29T15:43:04;19.70;93.70
9849;DHT22;4963;51.444;6.528;2023-05-29T15:45:31;19.60;93.80
9849;DHT22;4963;51.444;6.528;2023-05-29T15:47:59;19.60;94.80
9849;DHT22;4963;51.444;6.528;2023-05-29T15:50:26;19.50;94.30
9849;DHT22;4963;51.444;6.528;2023-05-29T15:52:53;19.60;94.40
9849;DHT22;4963;51.444;6.528;2023-05-29T15:55:20;19.60;95.10
9849;DHT22;4963;51.444;6.528;2023-05-29T15:57:46;19.60;94.40
9849;DHT22;4963;51.444;6.528;2023-05-29T16:00:15;19.70;94.50
9849;DHT22;4963;51.444;6.528;2023-05-29T16:02:42;19.70;93.90
9849;DHT22;4963;51.444;6.528;2023-05-29T16:05:10;19.80;94.60
9849;DHT22;4963;51.444;6.528;2023-05-29T16:07:37;19.80;94.50
9849;DHT22;4963;51.444;6.528;2023-05-29T16:10:05;19.80;93.20